createdAt,value
2018-05-16T00:00:51.871Z,76.44
2018-05-16T00:02:27.002Z,76.72
2018-05-16T00:04:02.189Z,76.45
2018-05-16T00:05:37.315Z,76.55
2018-05-16T00:07:13.192Z,76.68
2018-05-16T00:08:49.033Z,76.62
2018-05-16T00:10:24.803Z,76.79
2018-05-16T00:11:59.970Z,76.45
2018-05-16T00:13:37.794Z,76.62
2018-05-16T00:15:14.134Z,76.68
2018-05-16T00:16:49.259Z,76.60
2018-05-16T00:18:25.131Z,76.59
2018-05-16T00:20:00.247Z,76.88
2018-05-16T00:21:35.378Z,77.14
2018-05-16T00:23:11.204Z,76.84
2018-05-16T00:24:46.339Z,76.82
2018-05-16T00:26:21.469Z,76.82
2018-05-16T00:27:57.385Z,76.82
2018-05-16T00:29:33.190Z,76.81
2018-05-16T00:31:08.399Z,77.01
2018-05-16T00:32:43.517Z,76.65
2018-05-16T00:34:18.620Z,76.77
2018-05-16T00:35:53.783Z,77.01
2018-05-16T00:37:28.913Z,76.92
2018-05-16T00:39:04.513Z,76.88
2018-05-16T00:40:39.671Z,76.71
2018-05-16T00:42:14.750Z,77.02
2018-05-16T00:43:49.871Z,77.09
2018-05-16T00:45:25.815Z,76.80
2018-05-16T00:47:00.950Z,76.92
2018-05-16T00:48:36.105Z,76.78
2018-05-16T00:50:12.052Z,76.86
2018-05-16T00:51:47.144Z,76.95
2018-05-16T00:53:23.450Z,76.75
2018-05-16T00:54:59.389Z,76.52
2018-05-16T00:56:34.499Z,76.33
2018-05-16T00:58:10.411Z,76.21
2018-05-16T00:59:46.302Z,76.08
2018-05-16T01:01:21.429Z,76.28
2018-05-16T01:02:56.587Z,76.66
2018-05-16T01:04:31.701Z,76.66
2018-05-16T01:06:06.886Z,76.67
2018-05-16T01:07:42.757Z,76.80
2018-05-16T01:09:19.110Z,76.74
2018-05-16T01:10:54.268Z,76.45
2018-05-16T01:12:29.870Z,76.37
2018-05-16T01:14:04.962Z,76.41
2018-05-16T01:15:40.118Z,76.58
2018-05-16T01:17:15.232Z,76.64
2018-05-16T01:18:51.072Z,76.66
2018-05-16T01:20:26.201Z,76.62
2018-05-16T01:22:01.367Z,76.57
2018-05-16T01:23:36.511Z,76.68
2018-05-16T01:25:13.075Z,76.58
2018-05-16T01:26:48.287Z,76.70
2018-05-16T01:28:23.975Z,76.57
2018-05-16T01:29:59.096Z,76.48
2018-05-16T01:31:34.223Z,76.86
2018-05-16T01:33:09.297Z,76.71
2018-05-16T01:34:44.480Z,77.04
2018-05-16T01:36:19.600Z,76.75
2018-05-16T01:37:55.531Z,76.59
2018-05-16T01:39:30.609Z,76.50
2018-05-16T01:41:05.762Z,76.47
2018-05-16T01:42:40.910Z,76.57
2018-05-16T01:44:16.075Z,76.64
2018-05-16T01:45:53.014Z,76.66
2018-05-16T01:47:28.148Z,77.06
2018-05-16T01:49:22.982Z,77.17
2018-05-16T01:50:58.835Z,76.91
2018-05-16T01:52:33.963Z,77.00
2018-05-16T01:54:09.102Z,77.17
2018-05-16T01:55:44.975Z,76.93
2018-05-16T01:57:21.998Z,77.29
2018-05-16T01:58:57.086Z,77.37
2018-05-16T02:00:32.213Z,77.38
2018-05-16T02:02:07.320Z,77.10
2018-05-16T02:03:42.458Z,76.44
2018-05-16T02:05:17.613Z,76.16
2018-05-16T02:06:52.713Z,76.22
2018-05-16T02:08:28.561Z,76.10
2018-05-16T02:10:03.816Z,76.40
2018-05-16T02:11:39.229Z,76.24
2018-05-16T02:13:15.164Z,75.52
2018-05-16T02:14:50.292Z,75.60
2018-05-16T02:16:26.202Z,75.73
2018-05-16T02:18:01.301Z,75.76
2018-05-16T02:19:37.161Z,75.80
2018-05-16T02:21:12.316Z,75.75
2018-05-16T02:22:48.191Z,75.90
2018-05-16T02:24:24.134Z,76.33
2018-05-16T02:25:59.316Z,76.82
2018-05-16T02:27:34.452Z,77.00
2018-05-16T02:29:10.703Z,77.03
2018-05-16T02:30:46.855Z,76.73
2018-05-16T02:32:22.730Z,76.37
2018-05-16T02:33:57.939Z,76.29
2018-05-16T02:35:33.037Z,75.87
2018-05-16T02:37:08.195Z,75.80
2018-05-16T02:38:43.460Z,75.82
2018-05-16T02:40:18.568Z,75.30
2018-05-16T02:41:54.020Z,75.56
2018-05-16T02:43:29.934Z,75.44
2018-05-16T02:45:05.087Z,75.47
2018-05-16T02:46:40.969Z,75.01
2018-05-16T02:48:16.844Z,74.81
2018-05-16T02:49:51.948Z,75.29
2018-05-16T02:51:27.124Z,74.85
2018-05-16T02:53:02.275Z,74.58
2018-05-16T02:54:37.360Z,74.47
2018-05-16T02:56:12.467Z,74.74
2018-05-16T02:57:47.568Z,75.21
2018-05-16T02:59:23.487Z,75.44
2018-05-16T03:00:58.593Z,75.52
2018-05-16T03:02:34.534Z,75.74
2018-05-16T03:04:09.677Z,75.47
2018-05-16T03:05:45.641Z,75.38
2018-05-16T03:07:21.619Z,75.24
2018-05-16T03:08:56.748Z,75.38
2018-05-16T03:10:31.870Z,75.53
2018-05-16T03:12:08.639Z,75.59
2018-05-16T03:13:43.847Z,75.60
2018-05-16T03:15:19.802Z,75.58
2018-05-16T03:16:54.925Z,75.58
2018-05-16T03:18:30.751Z,75.55
2018-05-16T03:20:05.869Z,75.65
2018-05-16T03:21:41.800Z,75.83
2018-05-16T03:23:16.980Z,75.72
2018-05-16T03:24:52.090Z,75.70
2018-05-16T03:26:27.187Z,75.77
2018-05-16T03:28:03.040Z,75.96
2018-05-16T03:29:38.184Z,75.93
2018-05-16T03:31:13.290Z,76.20
2018-05-16T03:32:48.976Z,76.10
2018-05-16T03:34:24.849Z,76.09
2018-05-16T03:36:04.210Z,75.85
2018-05-16T03:37:39.315Z,75.63
2018-05-16T03:39:15.208Z,75.58
2018-05-16T03:40:50.340Z,75.39
2018-05-16T03:42:25.453Z,75.27
2018-05-16T03:44:01.391Z,74.95
2018-05-16T03:45:36.496Z,74.78
2018-05-16T03:47:12.361Z,74.59
2018-05-16T03:48:47.494Z,74.53
2018-05-16T03:50:23.321Z,74.49
2018-05-16T03:51:59.260Z,74.66
2018-05-16T03:53:34.320Z,74.78
2018-05-16T03:55:09.454Z,75.04
2018-05-16T03:56:45.356Z,74.69
2018-05-16T03:58:38.116Z,74.64
2018-05-16T04:00:31.782Z,74.66
2018-05-16T04:02:24.715Z,74.55
2018-05-16T04:04:17.628Z,74.73
2018-05-16T04:05:52.790Z,74.52
2018-05-16T04:07:29.869Z,74.62
2018-05-16T04:09:05.691Z,74.46
2018-05-16T04:10:41.772Z,74.41
2018-05-16T04:12:16.892Z,74.22
2018-05-16T04:13:52.753Z,74.12
2018-05-16T04:15:27.877Z,74.10
2018-05-16T04:17:03.030Z,74.47
2018-05-16T04:18:38.167Z,73.97
2018-05-16T04:20:13.296Z,74.04
2018-05-16T04:21:48.414Z,73.99
2018-05-16T04:23:23.783Z,74.24
2018-05-16T04:24:59.670Z,74.04
2018-05-16T04:26:34.771Z,74.00
2018-05-16T04:28:09.937Z,73.69
2018-05-16T04:29:45.061Z,73.78
2018-05-16T04:31:20.187Z,73.58
2018-05-16T04:32:55.295Z,73.99
2018-05-16T04:34:30.847Z,74.14
2018-05-16T04:36:05.976Z,74.10
2018-05-16T04:37:41.836Z,73.83
2018-05-16T04:39:17.048Z,73.65
2018-05-16T04:40:52.544Z,73.83
2018-05-16T04:42:27.984Z,74.31
2018-05-16T04:44:03.995Z,74.30
2018-05-16T04:45:39.147Z,74.20
2018-05-16T04:47:15.031Z,74.29
2018-05-16T04:48:50.924Z,74.01
2018-05-16T04:50:27.418Z,74.38
2018-05-16T04:52:03.303Z,74.43
2018-05-16T04:53:39.187Z,74.41
2018-05-16T04:55:16.356Z,73.84
2018-05-16T04:56:52.376Z,73.75
2018-05-16T04:58:28.649Z,73.43
2018-05-16T05:00:04.997Z,73.37
2018-05-16T05:01:40.510Z,73.12
2018-05-16T05:03:15.652Z,73.25
2018-05-16T05:04:51.596Z,73.19
2018-05-16T05:06:26.986Z,73.19
2018-05-16T05:08:09.590Z,73.39
2018-05-16T05:09:45.365Z,73.80
2018-05-16T05:11:21.590Z,74.01
2018-05-16T05:13:00.598Z,73.87
2018-05-16T05:14:36.704Z,74.32
2018-05-16T05:16:12.688Z,74.91
2018-05-16T05:17:47.801Z,74.74
2018-05-16T05:19:22.919Z,74.60
2018-05-16T05:20:58.020Z,74.83
2018-05-16T05:22:33.926Z,75.00
2018-05-16T05:24:09.166Z,75.09
2018-05-16T05:25:45.095Z,75.54
2018-05-16T05:27:20.902Z,75.36
2018-05-16T05:28:56.172Z,75.90
2018-05-16T05:30:32.515Z,75.89
2018-05-16T05:32:07.853Z,75.51
2018-05-16T05:33:42.937Z,75.87
2018-05-16T05:35:18.035Z,76.12
2018-05-16T05:36:53.204Z,76.41
2018-05-16T05:38:29.374Z,76.29
2018-05-16T05:40:04.517Z,76.04
2018-05-16T05:41:39.983Z,75.89
2018-05-16T05:43:15.906Z,76.17
2018-05-16T05:44:51.621Z,76.43
2018-05-16T05:46:27.131Z,76.35
2018-05-16T05:48:02.263Z,75.78
2018-05-16T05:49:37.450Z,75.60
2018-05-16T05:51:12.586Z,75.70
2018-05-16T05:52:48.589Z,75.03
2018-05-16T05:54:23.702Z,75.19
2018-05-16T05:55:58.838Z,74.65
2018-05-16T05:57:33.956Z,74.58
2018-05-16T05:59:11.055Z,74.04
2018-05-16T06:00:46.986Z,74.07
2018-05-16T06:02:24.227Z,73.94
2018-05-16T06:03:59.422Z,73.48
2018-05-16T06:05:34.849Z,72.97
2018-05-16T06:07:10.283Z,72.66
2018-05-16T06:08:45.564Z,72.67
2018-05-16T06:10:31.419Z,72.85
2018-05-16T06:12:07.784Z,72.55
2018-05-16T06:13:43.001Z,72.94
2018-05-16T06:24:21.767Z,72.37
2018-05-16T06:25:56.976Z,72.13
2018-05-16T06:27:32.829Z,72.08
2018-05-16T06:29:07.940Z,71.70
2018-05-16T06:30:43.039Z,71.49
2018-05-16T06:32:18.173Z,71.38
2018-05-16T06:33:53.282Z,71.35
2018-05-16T06:35:33.719Z,71.53
2018-05-16T06:37:14.862Z,71.03
2018-05-16T06:38:55.205Z,70.86
2018-05-16T06:40:31.285Z,70.63
2018-05-16T06:42:07.170Z,71.00
2018-05-16T06:43:42.736Z,70.42
2018-05-16T06:45:25.873Z,70.33
2018-05-16T06:47:00.964Z,70.01
2018-05-16T06:48:38.288Z,70.20
2018-05-16T06:50:14.397Z,70.01
2018-05-16T06:51:49.546Z,70.33
2018-05-16T06:53:24.651Z,70.42
2018-05-16T06:55:00.268Z,70.26
2018-05-16T06:56:36.908Z,70.73
2018-05-16T06:58:12.788Z,70.91
2018-05-16T06:59:47.947Z,70.62
2018-05-16T07:01:23.043Z,70.45
2018-05-16T07:02:58.143Z,70.10
2018-05-16T07:04:34.491Z,69.36
2018-05-16T07:06:17.390Z,69.04
2018-05-16T07:07:52.604Z,68.63
2018-05-16T07:09:27.888Z,68.86
2018-05-16T07:11:03.423Z,68.68
2018-05-16T07:12:38.654Z,68.79
2018-05-16T07:14:15.621Z,68.83
2018-05-16T07:15:51.208Z,69.16
2018-05-16T07:17:26.395Z,69.34
2018-05-16T07:19:02.122Z,69.50
2018-05-16T07:20:37.304Z,70.65
2018-05-16T07:22:12.421Z,71.27
2018-05-16T07:23:47.530Z,72.60
2018-05-16T07:25:22.712Z,72.83
2018-05-16T07:26:59.053Z,75.24
2018-05-16T07:28:34.166Z,74.98
2018-05-16T07:30:09.394Z,74.90
2018-05-16T07:31:44.517Z,75.86
2018-05-16T07:33:19.669Z,75.17
2018-05-16T07:34:54.772Z,75.32
2018-05-16T07:36:30.780Z,75.90
2018-05-16T07:38:06.797Z,74.23
2018-05-16T07:39:43.520Z,74.40
2018-05-16T07:41:20.716Z,73.65
2018-05-16T07:42:56.865Z,74.28
2018-05-16T07:44:32.116Z,74.24
2018-05-16T07:46:15.484Z,75.11
2018-05-16T07:47:50.635Z,73.62
2018-05-16T07:49:26.002Z,74.08
2018-05-16T07:51:01.174Z,74.51
2018-05-16T07:52:39.877Z,74.95
2018-05-16T07:54:15.018Z,75.46
2018-05-16T07:55:50.272Z,74.76
2018-05-16T07:57:25.529Z,75.18
2018-05-16T07:59:28.434Z,75.02
2018-05-16T08:01:03.753Z,74.38
2018-05-16T08:02:38.948Z,74.17
2018-05-16T08:04:14.826Z,74.04
2018-05-16T08:05:50.045Z,73.49
2018-05-16T08:07:28.270Z,73.02
2018-05-16T08:09:04.129Z,72.44
2018-05-16T08:10:39.741Z,71.87
2018-05-16T08:12:15.594Z,71.87
2018-05-16T08:13:50.777Z,70.86
2018-05-16T08:15:25.914Z,70.22
2018-05-16T08:17:01.080Z,70.22
2018-05-16T08:18:37.636Z,69.34
2018-05-16T08:20:13.632Z,68.82
2018-05-16T08:21:48.920Z,70.13
2018-05-16T08:23:49.265Z,69.40
2018-05-16T08:25:26.784Z,69.50
2018-05-16T08:27:14.867Z,69.48
2018-05-16T08:28:50.577Z,69.36
2018-05-16T08:30:40.430Z,69.42
2018-05-16T08:32:15.542Z,69.36
2018-05-16T08:33:50.667Z,68.83
2018-05-16T08:35:55.757Z,68.14
2018-05-16T08:37:30.929Z,68.16
2018-05-16T08:39:07.383Z,68.36
2018-05-16T08:40:42.747Z,68.69
2018-05-16T08:42:33.068Z,68.69
2018-05-16T08:45:52.478Z,67.75
2018-05-16T08:47:51.448Z,68.04
2018-05-16T08:49:26.762Z,69.57
2018-05-16T08:52:49.993Z,69.82
2018-05-16T08:54:25.787Z,69.57
2018-05-16T08:56:01.842Z,70.48
2018-05-16T08:57:37.116Z,70.64
2018-05-16T08:59:12.541Z,70.15
2018-05-16T09:10:09.000Z,67.94
2018-05-16T09:11:46.089Z,67.84
2018-05-16T09:13:21.552Z,67.72
2018-05-16T09:14:57.269Z,67.88
2018-05-16T09:16:32.393Z,67.39
2018-05-16T09:18:07.915Z,66.47
2018-05-16T09:19:43.033Z,65.30
2018-05-16T09:21:18.177Z,64.53
2018-05-16T09:22:54.003Z,63.83
2018-05-16T09:24:30.098Z,63.47
2018-05-16T09:26:05.567Z,63.71
2018-05-16T09:27:41.853Z,62.96
2018-05-16T09:29:17.810Z,63.14
2018-05-16T09:30:53.572Z,62.89
2018-05-16T09:32:29.705Z,63.30
2018-05-16T09:34:07.242Z,62.69
2018-05-16T09:35:43.020Z,63.04
2018-05-16T09:37:20.066Z,63.70
2018-05-16T09:39:01.045Z,62.64
2018-05-16T09:40:42.465Z,62.01
2018-05-16T09:42:23.770Z,62.45
2018-05-16T09:44:04.285Z,62.17
2018-05-16T09:45:50.050Z,63.07
2018-05-16T09:47:28.600Z,63.11
2018-05-16T09:49:05.658Z,62.06
2018-05-16T09:50:43.654Z,61.45
2018-05-16T09:52:19.598Z,61.98
2018-05-16T09:54:09.074Z,62.25
2018-05-16T09:55:56.770Z,61.80
2018-05-16T10:00:09.328Z,61.40
2018-05-16T10:01:45.248Z,61.53
2018-05-16T10:03:20.377Z,61.64
2018-05-16T10:04:56.113Z,61.73
2018-05-16T10:06:32.151Z,61.99
2018-05-16T10:08:08.852Z,61.47
2018-05-16T10:09:52.656Z,60.97
2018-05-16T10:11:28.745Z,62.29
2018-05-16T10:13:06.231Z,62.67
2018-05-16T10:14:42.097Z,63.43
2018-05-16T10:16:17.289Z,63.90
2018-05-16T10:17:52.488Z,64.14
2018-05-16T10:19:27.963Z,64.29
2018-05-16T10:21:05.307Z,63.81
2018-05-16T10:22:42.159Z,63.54
2018-05-16T10:24:18.281Z,63.87
2018-05-16T10:25:53.497Z,64.10
2018-05-16T10:27:31.209Z,64.16
2018-05-16T10:29:08.218Z,63.87
2018-05-16T10:30:48.353Z,64.60
2018-05-16T10:32:24.327Z,65.37
2018-05-16T10:34:01.638Z,64.92
2018-05-16T10:35:53.553Z,64.63
2018-05-16T10:39:40.907Z,65.03
2018-05-16T10:41:16.797Z,64.19
2018-05-16T10:42:52.114Z,64.54
2018-05-16T10:44:28.417Z,64.89
2018-05-16T10:46:09.486Z,64.52
2018-05-16T10:47:44.832Z,64.31
2018-05-16T10:49:20.124Z,63.97
2018-05-16T10:50:57.512Z,63.42
2018-05-16T10:52:34.382Z,64.33
2018-05-16T10:54:16.159Z,64.57
2018-05-16T10:55:53.486Z,64.73
2018-05-16T10:57:30.821Z,65.66
2018-05-16T10:59:06.068Z,65.82
2018-05-16T16:35:21.942Z,100.00
2018-05-16T16:36:57.056Z,100.00
2018-05-16T16:38:35.686Z,100.00
2018-05-16T16:40:11.330Z,97.96
2018-05-16T16:41:47.292Z,100.00
2018-05-16T16:43:22.396Z,100.00
2018-05-16T16:44:57.545Z,100.00
2018-05-16T16:46:32.629Z,100.00
2018-05-16T16:48:07.790Z,100.00
2018-05-16T16:49:42.915Z,100.00
2018-05-16T16:51:18.044Z,100.00
2018-05-16T16:52:53.256Z,100.00
2018-05-16T16:54:33.897Z,100.00
2018-05-16T16:56:08.927Z,100.00
2018-05-16T16:57:44.089Z,100.00
2018-05-16T16:59:19.220Z,100.00
2018-05-16T17:00:55.396Z,100.00
2018-05-16T17:02:30.585Z,100.00
2018-05-16T17:04:05.714Z,100.00
2018-05-16T17:05:40.823Z,100.00
2018-05-16T17:07:16.819Z,100.00
2018-05-16T17:08:53.019Z,100.00
2018-05-16T17:10:28.769Z,100.00
2018-05-16T17:12:03.952Z,100.00
2018-05-16T17:13:40.538Z,100.00
2018-05-16T17:15:15.857Z,100.00
2018-05-16T17:16:51.382Z,100.00
2018-05-16T17:18:27.619Z,100.00
2018-05-16T17:20:05.617Z,100.00
2018-05-16T17:21:42.587Z,100.00
2018-05-16T17:23:19.236Z,100.00
2018-05-16T17:24:55.093Z,100.00
2018-05-16T17:26:31.442Z,100.00
2018-05-16T17:28:06.647Z,100.00
2018-05-16T17:29:42.593Z,100.00
2018-05-16T17:31:19.672Z,100.00
2018-05-16T17:32:57.195Z,100.00
2018-05-16T17:34:33.151Z,100.00
2018-05-16T17:36:09.544Z,100.00
2018-05-16T17:37:50.741Z,100.00
2018-05-16T17:39:25.873Z,100.00
2018-05-16T17:41:00.973Z,100.00
2018-05-16T17:42:36.120Z,100.00
2018-05-16T17:44:11.234Z,100.00
2018-05-16T17:45:47.199Z,100.00
2018-05-16T17:47:22.637Z,100.00
2018-05-16T17:49:03.814Z,100.00
2018-05-16T17:50:39.504Z,100.00
2018-05-16T17:52:15.844Z,100.00
2018-05-16T17:53:51.206Z,100.00
2018-05-16T17:55:30.701Z,100.00
2018-05-16T17:57:06.435Z,100.00
2018-05-16T17:58:42.305Z,100.00
2018-05-16T18:00:18.469Z,100.00
2018-05-16T18:01:55.486Z,100.00
2018-05-16T18:03:30.649Z,100.00
2018-05-16T18:05:06.605Z,100.00
2018-05-16T18:06:41.788Z,100.00
2018-05-16T18:08:16.985Z,100.00
2018-05-16T18:09:52.317Z,100.00
2018-05-16T18:11:27.440Z,100.00
